logo
Search for airport 
image banner adimage banner adimage banner ad
image banner ad

ED2203 - Schwaigern

Located in , Germany

ICAO - , IATA -

Data provided by Airmate  

General information

Coordinates: N49°6'16" E9°0'41"
Elevation is 1064 feet MSL.
 
View others Airports in Baden-Württemberg

Operational data

Special qualification required
Current time UTC:
Current local time:
Weather at : EDDS - Stuttgart ( 49 km )
METAR: EDDS 250420Z AUTO 06003KT 360V140 CAVOK 17/12 Q1014 NOSIG
TAF: TAF EDDS 242300Z 2500/2524 VRB03KT CAVOK BECMG 2506/2508 05007KT BECMG 2519/2522 VRB03KT
View NOTAMs / SUP AIP / TFR affecting this airport [VIEW]
Communications frequencies: [VIEW]

Runways:

Airport contact information

Address: Germany

Satellite view of ED2203